Cherbourg-Maupertus Airport

Airport
ICAO code: 
LFRC
IATA Code: 
CER
Summary
ICAO Region: 
EUR
Territory: 
Location: 
, Basse-Normandie
Serving: 
Cherbourg
Elevation: 
459 ft
Coordinates: 
Aerial View: 
49° 39' 0.382" N, 1° 28' 13.012" W
Metar
Observation
LFRC 241700Z AUTO 09007KT 7000 FEW012 04/02 Q1031 BECMG 3000 BR
Station
Cherbourg / Maupertus
Date/Time
2022-01-24 17:00:00
Wind direction
90°
Wind speed
07 kts
Lowest cloud amount
few clouds
Temperature
4°C
Dew point
2°C
Humidity
86%
QNH
1031 hPa
Weather condition
n/a

Runways

Designator Length Width Surface Rops
10/28 2440 45 ASP No/No
Airport map: 
Aerial View: 

SKYbrary Partners:

Safety knowledge contributed by: